Clayton, Illinois
Current Conditions -  °F | °C
As of 10:54 AM on Saturday 25 Oct 2014 (Local Time) from KUIN Reporting Station
Clear Clear  
Wind Chill: 67°   Ceiling: Unl
Heat Index: 67°   Visibility: 9mi
Dew Point: 57°   Wind: 3mph
Humidity: 70%   Direction: NA
Pressure: 30.05"   Gusts: NA
Location:  40.03°N, 90.96°W
Report Text: KUIN 251554Z AUTO VRB03KT 9SM CLR 19/14 A3005 RMK AO2 SLP171 T01940139
Loading
Personal Weather Stations






























Interactive Weather Map
Tropical Storm Tracking
New forecast layout! Learn more

10-Day Weather Forecast

Advertisements
Track Severe Weather on mobile